createdAt,value
2023-01-21T00:02:01.948Z,40.28
2023-01-21T00:04:34.093Z,34.27
2023-01-21T00:07:04.764Z,35.50
2023-01-21T00:09:35.850Z,37.80
2023-01-21T00:12:07.136Z,51.68
2023-01-21T00:14:37.882Z,39.70
2023-01-21T00:17:08.751Z,38.35
2023-01-21T00:19:39.773Z,43.92
2023-01-21T00:22:10.947Z,31.90
2023-01-21T00:24:41.662Z,35.17
2023-01-21T00:27:12.367Z,29.37
2023-01-21T00:29:43.078Z,31.57
2023-01-21T00:32:13.895Z,44.67
2023-01-21T00:34:44.635Z,35.52
2023-01-21T00:37:15.691Z,46.25
2023-01-21T00:39:46.631Z,48.17
2023-01-21T00:42:17.343Z,34.20
2023-01-21T00:44:48.341Z,47.30
2023-01-21T00:47:20.511Z,38.08
2023-01-21T00:49:51.285Z,35.75
2023-01-21T00:52:22.298Z,33.95
2023-01-21T00:54:53.022Z,31.70
2023-01-21T00:57:23.863Z,33.73
2023-01-21T00:59:55.300Z,37.03
2023-01-21T01:02:26.480Z,33.05
2023-01-21T01:04:57.277Z,29.18
2023-01-21T01:07:28.199Z,27.52
2023-01-21T01:09:59.091Z,32.95
2023-01-21T01:12:31.572Z,26.75
2023-01-21T01:15:02.448Z,28.90
2023-01-21T01:17:33.245Z,30.75
2023-01-21T01:20:05.675Z,28.95
2023-01-21T01:22:36.452Z,27.80
2023-01-21T01:25:08.725Z,28.87
2023-01-21T01:27:42.280Z,29.98
2023-01-21T01:30:14.464Z,29.75
2023-01-21T01:32:46.444Z,28.47
2023-01-21T01:35:17.345Z,29.02
2023-01-21T01:37:48.200Z,33.40
2023-01-21T01:40:19.296Z,31.35
2023-01-21T01:42:50.234Z,29.65
2023-01-21T01:45:23.030Z,32.00
2023-01-21T01:48:02.073Z,29.30
2023-01-21T01:50:35.329Z,31.62
2023-01-21T01:53:06.146Z,30.75
2023-01-21T01:55:39.231Z,31.62
2023-01-21T01:58:13.077Z,34.65
2023-01-21T02:00:43.918Z,33.85
2023-01-21T02:03:33.214Z,35.05
2023-01-21T02:06:04.724Z,36.50
2023-01-21T02:08:37.277Z,34.00
2023-01-21T02:11:15.436Z,35.68
2023-01-21T02:13:48.716Z,35.45
2023-01-21T02:16:41.219Z,31.37
2023-01-21T02:19:39.806Z,33.48
2023-01-21T02:22:34.324Z,31.75
2023-01-21T02:25:42.013Z,31.07
2023-01-21T02:28:39.861Z,34.58
2023-01-21T02:31:18.650Z,30.10
2023-01-21T02:34:10.202Z,28.02
2023-01-21T02:36:46.213Z,32.28
2023-01-21T02:39:25.404Z,27.60
2023-01-21T02:42:16.915Z,31.37
2023-01-21T02:45:05.190Z,30.02
2023-01-21T02:47:59.139Z,27.17
2023-01-21T02:50:35.574Z,29.37
2023-01-21T02:53:07.305Z,33.05
2023-01-21T02:55:43.500Z,31.62
2023-01-21T02:58:16.545Z,28.27
2023-01-21T03:00:52.592Z,28.02
2023-01-21T03:03:49.709Z,31.73
2023-01-21T03:06:37.937Z,27.98
2023-01-21T03:09:29.603Z,29.35
2023-01-21T03:12:20.861Z,27.77
2023-01-21T03:15:23.503Z,27.15
2023-01-21T03:18:17.703Z,24.45
2023-01-21T03:20:51.197Z,28.20
2023-01-21T03:23:24.420Z,31.07
2023-01-21T03:25:56.441Z,30.30
2023-01-21T03:28:30.246Z,37.63
2023-01-21T03:31:12.603Z,29.80
2023-01-21T03:33:47.929Z,24.27
2023-01-21T03:36:42.004Z,31.05
2023-01-21T03:39:33.147Z,28.65
2023-01-21T03:42:04.544Z,28.73
2023-01-21T03:44:36.010Z,25.15
2023-01-21T03:47:09.269Z,27.50
2023-01-21T03:49:45.346Z,26.87
2023-01-21T03:52:17.626Z,25.60
2023-01-21T03:54:50.538Z,30.77
2023-01-21T03:57:21.599Z,24.65
2023-01-21T03:59:52.683Z,24.63
2023-01-21T04:02:23.528Z,22.67
2023-01-21T04:04:54.491Z,26.15
2023-01-21T04:07:25.168Z,27.70
2023-01-21T04:09:55.829Z,25.90
2023-01-21T04:12:26.570Z,32.08
2023-01-21T04:14:57.306Z,24.47
2023-01-21T04:17:29.433Z,28.32
2023-01-21T04:20:00.146Z,23.83
2023-01-21T04:22:30.855Z,20.92
2023-01-21T04:25:01.761Z,28.85
2023-01-21T04:27:32.459Z,24.18
2023-01-21T04:30:03.392Z,22.17
2023-01-21T04:32:34.920Z,20.62
2023-01-21T04:35:05.858Z,24.02
2023-01-21T04:37:36.640Z,21.42
2023-01-21T04:40:08.449Z,18.80
2023-01-21T04:42:39.204Z,19.75
2023-01-21T04:45:11.433Z,23.18
2023-01-21T04:47:45.968Z,22.95
2023-01-21T04:50:18.083Z,26.68
2023-01-21T04:52:49.140Z,22.52
2023-01-21T04:55:20.183Z,21.55
2023-01-21T04:57:51.084Z,24.82
2023-01-21T05:00:22.318Z,23.50
2023-01-21T05:02:53.138Z,20.57
2023-01-21T05:05:23.919Z,22.45
2023-01-21T05:07:57.921Z,23.32
2023-01-21T05:10:28.884Z,24.87
2023-01-21T05:13:00.766Z,27.02
2023-01-21T05:15:31.454Z,30.65
2023-01-21T05:18:02.399Z,29.72
2023-01-21T05:20:35.258Z,35.08
2023-01-21T05:23:06.060Z,37.88
2023-01-21T05:25:36.785Z,33.10
2023-01-21T05:28:08.032Z,35.95
2023-01-21T05:30:40.718Z,29.12
2023-01-21T05:33:10.961Z,33.63
2023-01-21T05:35:41.756Z,27.00
2023-01-21T05:38:12.642Z,29.18
2023-01-21T05:40:43.443Z,36.13
2023-01-21T05:43:14.157Z,25.52
2023-01-21T05:45:45.196Z,20.97
2023-01-21T05:48:15.962Z,19.87
2023-01-21T05:50:46.837Z,20.30
2023-01-21T05:53:18.219Z,18.10
2023-01-21T05:55:49.141Z,21.10
2023-01-21T05:58:19.813Z,17.37
2023-01-21T06:00:50.823Z,18.65
2023-01-21T06:03:22.181Z,22.17
2023-01-21T06:05:53.860Z,18.35
2023-01-21T06:08:24.781Z,22.13
2023-01-21T06:10:57.503Z,20.60
2023-01-21T06:13:28.599Z,18.70
2023-01-21T06:15:59.781Z,19.32
2023-01-21T06:18:31.210Z,19.62
2023-01-21T06:21:06.052Z,18.55
2023-01-21T06:23:37.167Z,22.05
2023-01-21T06:26:08.136Z,19.55
2023-01-21T06:28:38.938Z,22.93
2023-01-21T06:31:09.730Z,22.45
2023-01-21T06:33:40.724Z,24.18
2023-01-21T06:36:12.108Z,22.27
2023-01-21T06:38:42.800Z,18.27
2023-01-21T06:41:13.523Z,17.70
2023-01-21T06:43:44.819Z,17.48
2023-01-21T06:46:15.547Z,21.77
2023-01-21T06:48:46.210Z,17.15
2023-01-21T06:51:17.022Z,22.17
2023-01-21T06:53:47.849Z,19.32
2023-01-21T06:56:18.671Z,19.00
2023-01-21T06:58:49.354Z,19.82
2023-01-21T07:01:20.186Z,18.55
2023-01-21T07:03:51.369Z,19.92
2023-01-21T07:06:23.456Z,17.90
2023-01-21T07:08:54.138Z,19.60
2023-01-21T07:11:25.036Z,20.50
2023-01-21T07:13:58.159Z,21.85
2023-01-21T07:16:28.974Z,24.30
2023-01-21T07:18:59.750Z,19.55
2023-01-21T07:21:32.039Z,18.73
2023-01-21T07:24:02.884Z,19.75
2023-01-21T07:26:35.063Z,17.60
2023-01-21T07:29:07.334Z,19.10
2023-01-21T07:31:38.485Z,22.82
2023-01-21T07:34:09.295Z,24.30
2023-01-21T07:36:40.114Z,21.80
2023-01-21T07:39:11.030Z,16.77
2023-01-21T07:41:41.963Z,19.17
2023-01-21T07:44:12.876Z,20.02
2023-01-21T07:46:43.721Z,20.00
2023-01-21T07:49:15.845Z,17.62
2023-01-21T07:51:48.182Z,21.77
2023-01-21T07:54:19.172Z,20.82
2023-01-21T07:56:50.111Z,21.97
2023-01-21T07:59:20.962Z,20.75
2023-01-21T08:01:51.953Z,16.82
2023-01-21T08:04:22.863Z,19.80
2023-01-21T08:06:55.319Z,18.07
2023-01-21T08:09:28.894Z,26.57
2023-01-21T08:11:59.655Z,21.97
2023-01-21T08:14:30.353Z,19.87
2023-01-21T08:17:01.530Z,20.50
2023-01-21T08:19:32.380Z,31.57
2023-01-21T08:22:03.619Z,20.05
2023-01-21T08:24:34.478Z,19.40
2023-01-21T08:27:05.389Z,21.33
2023-01-21T08:29:36.101Z,22.75
2023-01-21T08:32:07.117Z,20.82
2023-01-21T08:34:38.939Z,21.70
2023-01-21T08:37:09.655Z,18.12
2023-01-21T08:39:40.480Z,20.32
2023-01-21T08:42:11.272Z,20.12
2023-01-21T08:44:41.990Z,19.27
2023-01-21T08:47:12.784Z,19.75
2023-01-21T08:49:43.694Z,17.10
2023-01-21T08:52:14.605Z,18.27
2023-01-21T08:54:45.586Z,18.02
2023-01-21T08:57:16.475Z,15.80
2023-01-21T08:59:47.201Z,17.32
2023-01-21T09:02:18.072Z,18.52
2023-01-21T09:04:50.997Z,21.85
2023-01-21T09:07:21.991Z,14.98
2023-01-21T09:09:52.694Z,19.67
2023-01-21T09:12:23.374Z,20.20
2023-01-21T09:14:54.255Z,19.17
2023-01-21T09:17:25.456Z,16.85
2023-01-21T09:19:56.308Z,19.90
2023-01-21T09:22:27.012Z,17.55
2023-01-21T09:24:57.808Z,15.85
2023-01-21T09:27:29.327Z,15.00
2023-01-21T09:30:00.247Z,16.23
2023-01-21T09:32:31.063Z,16.42
2023-01-21T09:35:01.817Z,18.23
2023-01-21T09:37:33.888Z,16.35
2023-01-21T09:40:04.986Z,23.10
2023-01-21T09:42:37.129Z,23.50
2023-01-21T09:45:08.735Z,16.45
2023-01-21T09:47:41.957Z,20.45
2023-01-21T09:50:21.395Z,17.10
2023-01-21T09:52:54.036Z,16.37
2023-01-21T09:55:27.305Z,27.32
2023-01-21T09:58:18.706Z,16.27
2023-01-21T10:01:06.710Z,27.40
2023-01-21T10:03:49.034Z,18.02
2023-01-21T10:06:37.198Z,17.45
2023-01-21T10:09:10.500Z,17.12
2023-01-21T10:12:03.284Z,19.85
2023-01-21T10:14:54.773Z,17.32
2023-01-21T10:17:27.999Z,14.85
2023-01-21T10:20:16.635Z,18.30
2023-01-21T10:22:49.969Z,20.35
2023-01-21T10:25:26.246Z,18.67
2023-01-21T10:28:00.057Z,17.92
2023-01-21T10:30:42.357Z,18.25
2023-01-21T10:33:21.432Z,18.98
2023-01-21T10:36:06.758Z,21.10
2023-01-21T10:39:04.792Z,18.10
2023-01-21T10:41:59.245Z,15.40
2023-01-21T10:44:53.465Z,18.65
2023-01-21T10:47:32.906Z,19.48
2023-01-21T10:50:39.110Z,17.48
2023-01-21T10:53:27.127Z,19.30
2023-01-21T10:56:21.466Z,18.25
2023-01-21T10:59:00.432Z,22.05
2023-01-21T11:01:36.481Z,21.82
2023-01-21T11:04:27.873Z,20.82
2023-01-21T11:07:06.856Z,26.95
2023-01-21T11:09:40.090Z,31.70
2023-01-21T11:12:21.910Z,34.03
2023-01-21T11:14:55.114Z,41.10
2023-01-21T11:17:34.573Z,32.10
2023-01-21T11:20:07.835Z,32.98
2023-01-21T11:22:42.439Z,31.50
2023-01-21T11:25:24.677Z,40.28
2023-01-21T11:27:55.492Z,39.98
2023-01-21T11:30:50.752Z,44.55
2023-01-21T11:33:18.144Z,58.40
2023-01-21T11:35:49.460Z,62.73
2023-01-21T11:38:35.210Z,58.65
2023-01-21T11:41:14.297Z,62.23
2023-01-21T11:43:56.409Z,46.18
2023-01-21T11:46:41.789Z,42.83
2023-01-21T11:49:15.061Z,46.40
2023-01-21T11:51:47.551Z,40.25
2023-01-21T11:54:23.512Z,26.02
2023-01-21T11:57:02.829Z,27.97
2023-01-21T11:59:38.405Z,26.33
2023-01-21T12:02:30.859Z,27.32
2023-01-21T12:05:07.152Z,35.40
2023-01-21T12:07:40.403Z,33.98
2023-01-21T12:10:16.813Z,52.80
2023-01-21T12:13:05.114Z,32.63
2023-01-21T12:15:59.278Z,28.52
2023-01-21T12:18:54.797Z,28.35
2023-01-21T12:21:52.080Z,28.30
2023-01-21T12:24:34.324Z,26.02
2023-01-21T12:27:17.053Z,24.72
2023-01-21T12:30:11.249Z,27.45
2023-01-21T12:32:44.751Z,24.35
2023-01-21T12:35:18.301Z,37.17
2023-01-21T12:38:07.076Z,31.37
2023-01-21T12:40:55.146Z,27.62
2023-01-21T12:43:37.321Z,29.20
2023-01-21T12:46:33.256Z,30.52
2023-01-21T12:49:07.619Z,32.67
2023-01-21T12:51:40.931Z,30.77
2023-01-21T12:54:36.348Z,33.13
2023-01-21T12:57:21.537Z,34.43
2023-01-21T12:59:57.574Z,34.75
2023-01-21T13:02:39.649Z,31.47
2023-01-21T13:05:37.079Z,33.10
2023-01-21T13:08:22.076Z,33.70
2023-01-21T13:10:55.441Z,37.67
2023-01-21T13:13:42.777Z,32.20
2023-01-21T13:16:14.736Z,36.15
2023-01-21T13:18:48.661Z,38.40
2023-01-21T13:21:55.957Z,37.33
2023-01-21T13:24:38.034Z,33.70
2023-01-21T13:27:20.747Z,35.48
2023-01-21T13:30:06.159Z,42.08
2023-01-21T13:32:48.405Z,40.35
2023-01-21T13:35:43.975Z,37.30
2023-01-21T13:38:38.213Z,36.97
2023-01-21T13:41:29.611Z,38.02
2023-01-21T13:44:05.656Z,39.03
2023-01-21T13:46:56.733Z,38.30
2023-01-21T13:49:35.993Z,43.02
2023-01-21T13:52:22.169Z,45.15
2023-01-21T13:55:24.367Z,41.18
2023-01-21T13:58:13.104Z,42.90
2023-01-21T14:00:48.869Z,42.80
2023-01-21T14:03:27.607Z,47.60
2023-01-21T14:06:01.383Z,40.85
2023-01-21T14:08:40.160Z,49.33
2023-01-21T14:11:22.630Z,47.60
2023-01-21T14:14:04.834Z,50.25
2023-01-21T14:16:44.038Z,50.00
2023-01-21T14:19:46.260Z,48.80
2023-01-21T14:22:34.730Z,63.15
2023-01-21T14:25:26.869Z,48.38
2023-01-21T14:28:31.766Z,53.95
2023-01-21T14:31:08.055Z,47.43
2023-01-21T14:33:45.405Z,47.38
2023-01-21T14:36:27.925Z,50.40
2023-01-21T14:39:13.141Z,50.05
2023-01-21T14:42:04.803Z,53.25
2023-01-21T14:44:44.516Z,47.35
2023-01-21T14:47:29.634Z,52.55
2023-01-21T14:50:01.979Z,55.78
2023-01-21T14:52:37.749Z,49.30
2023-01-21T14:55:27.050Z,52.38
2023-01-21T14:57:59.323Z,62.40
2023-01-21T15:00:38.391Z,51.20
2023-01-21T15:03:28.974Z,54.65
2023-01-21T15:06:08.337Z,47.43
2023-01-21T15:08:47.678Z,53.80
2023-01-21T15:11:27.008Z,51.50
2023-01-21T15:14:12.605Z,52.25
2023-01-21T15:16:45.179Z,50.38
2023-01-21T15:19:20.309Z,56.48
2023-01-21T15:22:06.260Z,49.73
2023-01-21T15:24:42.743Z,49.80
2023-01-21T15:27:23.180Z,65.03
2023-01-21T15:30:02.305Z,52.62
2023-01-21T15:32:44.205Z,61.48
2023-01-21T15:35:26.132Z,49.53
2023-01-21T15:38:05.779Z,58.33
2023-01-21T15:41:01.570Z,54.98
2023-01-21T15:43:34.902Z,49.08
2023-01-21T15:46:26.632Z,55.67
2023-01-21T15:49:30.441Z,56.88
2023-01-21T15:52:09.412Z,51.35
2023-01-21T15:55:01.630Z,52.50
2023-01-21T15:57:53.211Z,47.00
2023-01-21T16:00:38.282Z,52.60
2023-01-21T16:03:23.717Z,49.77
2023-01-21T16:06:19.501Z,53.40
2023-01-21T16:09:13.249Z,46.65
2023-01-21T16:12:05.637Z,46.98
2023-01-21T16:14:53.976Z,47.58
2023-01-21T16:17:36.237Z,48.75
2023-01-21T16:20:09.517Z,42.35
2023-01-21T16:22:42.774Z,47.80
2023-01-21T16:25:19.602Z,51.88
2023-01-21T16:30:33.410Z,49.27
2023-01-21T16:33:16.861Z,44.33
2023-01-21T16:35:59.272Z,48.33
2023-01-21T16:38:35.234Z,51.05
2023-01-21T16:41:14.926Z,54.05
2023-01-21T16:43:50.905Z,47.95
2023-01-21T16:46:24.215Z,54.03
2023-01-21T16:48:58.630Z,52.33
2023-01-21T16:51:33.226Z,50.30
2023-01-21T16:54:21.987Z,49.05
2023-01-21T16:57:04.169Z,53.55
2023-01-21T16:59:43.401Z,60.73
2023-01-21T17:02:22.792Z,55.75
2023-01-21T17:04:53.761Z,68.45
2023-01-21T17:07:27.048Z,74.05
2023-01-21T17:10:00.304Z,60.25
2023-01-21T17:12:35.251Z,57.95
2023-01-21T17:15:07.761Z,55.73
2023-01-21T17:17:39.488Z,56.37
2023-01-21T17:20:13.083Z,59.13
2023-01-21T17:22:45.261Z,63.52
2023-01-21T17:25:27.637Z,61.58
2023-01-21T17:27:58.553Z,60.15
2023-01-21T17:30:35.082Z,65.62
2023-01-21T17:33:06.553Z,66.55
2023-01-21T17:35:37.353Z,63.83
2023-01-21T17:38:08.619Z,62.85
2023-01-21T17:40:51.067Z,66.33
2023-01-21T17:43:27.243Z,60.38
2023-01-21T17:45:59.464Z,64.67
2023-01-21T17:48:35.182Z,69.53
2023-01-21T17:51:19.316Z,60.95
2023-01-21T17:53:56.537Z,65.35
2023-01-21T17:56:44.739Z,57.40
2023-01-21T17:59:34.280Z,63.60
2023-01-21T18:02:09.366Z,61.98
2023-01-21T18:04:40.157Z,66.33
2023-01-21T18:07:17.888Z,65.52
2023-01-21T18:09:58.233Z,63.80
2023-01-21T18:12:35.008Z,64.37
2023-01-21T18:15:09.012Z,63.10
2023-01-21T18:17:42.252Z,60.05
2023-01-21T18:20:21.873Z,68.05
2023-01-21T18:22:53.914Z,64.47
2023-01-21T18:25:26.383Z,67.67
2023-01-21T18:27:57.970Z,64.12
2023-01-21T18:30:30.777Z,66.28
2023-01-21T18:33:01.677Z,65.50
2023-01-21T18:35:33.222Z,68.07
2023-01-21T18:38:03.405Z,64.40
2023-01-21T18:40:34.130Z,61.50
2023-01-21T18:43:05.011Z,57.25
2023-01-21T18:45:35.677Z,67.27
2023-01-21T18:48:08.121Z,61.13
2023-01-21T18:50:38.877Z,61.95
2023-01-21T18:53:10.407Z,61.53
2023-01-21T18:55:44.028Z,62.13
2023-01-21T18:58:16.045Z,69.82
2023-01-21T19:00:46.754Z,69.82
2023-01-21T19:03:18.074Z,70.15
2023-01-21T19:05:49.049Z,67.70
2023-01-21T19:08:25.866Z,68.47
2023-01-21T19:10:56.966Z,82.12
2023-01-21T19:13:28.346Z,70.90
2023-01-21T19:15:59.576Z,70.60
2023-01-21T19:18:30.355Z,71.72
2023-01-21T19:21:01.879Z,77.55
2023-01-21T19:23:32.572Z,76.67
2023-01-21T19:26:03.375Z,71.37
2023-01-21T19:28:35.843Z,68.52
2023-01-21T19:31:06.783Z,68.83
2023-01-21T19:33:56.752Z,69.82
2023-01-21T19:36:28.233Z,65.78
2023-01-21T19:39:02.663Z,69.75
2023-01-21T19:41:33.470Z,67.90
2023-01-21T19:44:04.164Z,66.57
2023-01-21T19:46:35.020Z,71.45
2023-01-21T19:49:10.232Z,70.67
2023-01-21T19:51:40.505Z,66.42
2023-01-21T19:54:11.445Z,63.75
2023-01-21T19:56:42.193Z,67.05
2023-01-21T19:59:15.576Z,63.28
2023-01-21T20:01:49.410Z,61.55
2023-01-21T20:04:20.243Z,68.95
2023-01-21T20:06:54.129Z,62.55
2023-01-21T20:09:24.951Z,66.02
2023-01-21T20:11:55.794Z,64.53
2023-01-21T20:14:26.857Z,67.03
2023-01-21T20:16:58.091Z,62.53
2023-01-21T20:19:28.105Z,65.25
2023-01-21T20:22:02.420Z,64.65
2023-01-21T20:24:32.833Z,67.25
2023-01-21T20:27:06.611Z,57.80
2023-01-21T20:29:37.782Z,62.25
2023-01-21T20:32:09.535Z,58.92
2023-01-21T20:34:40.427Z,54.85
2023-01-21T20:37:13.700Z,61.13
2023-01-21T20:39:44.434Z,56.65
2023-01-21T20:42:16.070Z,58.65
2023-01-21T20:44:46.748Z,53.95
2023-01-21T20:47:27.547Z,60.48
2023-01-21T20:49:49.713Z,49.70
2023-01-21T20:52:20.594Z,57.88
2023-01-21T20:54:51.609Z,59.33
2023-01-21T20:57:22.368Z,55.00
2023-01-21T20:59:53.102Z,53.52
2023-01-21T21:02:23.885Z,56.53
2023-01-21T21:04:54.685Z,54.15
2023-01-21T21:07:26.740Z,53.68
2023-01-21T21:09:58.137Z,53.48
2023-01-21T21:12:29.030Z,51.70
2023-01-21T21:14:59.771Z,51.00
2023-01-21T21:17:30.942Z,51.53
2023-01-21T21:20:01.675Z,50.12
2023-01-21T21:22:32.499Z,49.42
2023-01-21T21:25:03.226Z,52.65
2023-01-21T21:27:34.035Z,57.10
2023-01-21T21:30:05.207Z,51.48
2023-01-21T21:32:35.908Z,51.90
2023-01-21T21:35:07.877Z,55.60
2023-01-21T21:37:39.508Z,51.20
2023-01-21T21:40:11.777Z,47.23
2023-01-21T21:43:00.120Z,51.63
2023-01-21T21:45:30.805Z,52.70
2023-01-21T21:48:18.998Z,51.30
2023-01-21T21:50:51.114Z,50.17
2023-01-21T21:53:21.856Z,52.17
2023-01-21T21:55:52.661Z,53.42
2023-01-21T21:58:23.478Z,50.40
2023-01-21T22:00:55.343Z,51.90
2023-01-21T22:03:26.183Z,49.88
2023-01-21T22:05:58.554Z,50.83
2023-01-21T22:08:30.669Z,55.15
2023-01-21T22:11:02.683Z,54.88
2023-01-21T22:13:35.589Z,56.30
2023-01-21T22:16:07.234Z,54.67
2023-01-21T22:18:38.667Z,54.93
2023-01-21T22:21:12.084Z,54.00
2023-01-21T22:23:42.893Z,53.05
2023-01-21T22:26:15.981Z,50.67
2023-01-21T22:28:47.487Z,58.92
2023-01-21T22:31:20.908Z,54.40
2023-01-21T22:33:52.172Z,60.75
2023-01-21T22:36:24.710Z,59.33
2023-01-21T22:38:56.318Z,61.18
2023-01-21T22:41:28.050Z,58.87
2023-01-21T22:43:58.946Z,60.30
2023-01-21T22:46:34.962Z,68.40
2023-01-21T22:49:05.972Z,61.45
2023-01-21T22:51:36.681Z,60.98
2023-01-21T22:54:08.639Z,61.75
2023-01-21T22:56:51.591Z,58.25
2023-01-21T22:59:13.467Z,62.62
2023-01-21T23:01:44.702Z,66.90
2023-01-21T23:04:16.965Z,62.43
2023-01-21T23:06:49.528Z,71.42
2023-01-21T23:09:20.317Z,71.95
2023-01-21T23:11:52.691Z,72.55
2023-01-21T23:14:23.516Z,73.02
2023-01-21T23:16:55.446Z,67.42
2023-01-21T23:19:27.677Z,74.32
2023-01-21T23:21:58.544Z,70.50
2023-01-21T23:24:29.352Z,67.75
2023-01-21T23:27:00.140Z,71.10
2023-01-21T23:29:30.919Z,70.35
2023-01-21T23:32:01.814Z,68.07
2023-01-21T23:34:32.614Z,69.53
2023-01-21T23:37:03.466Z,64.32
2023-01-21T23:39:34.115Z,66.60
2023-01-21T23:42:04.804Z,67.80
2023-01-21T23:44:35.502Z,68.40
2023-01-21T23:47:06.317Z,65.32
2023-01-21T23:49:37.306Z,70.15
2023-01-21T23:52:09.537Z,71.60
2023-01-21T23:54:41.134Z,67.50
2023-01-21T23:57:12.461Z,69.67
2023-01-21T23:59:43.192Z,65.03
